Flight Track Log - Related Links

Times and Time Zones

All times are in EDT time to prevent confusion due to time zone crossing. See the JBU1329 flight status page for this flight to view local times or setup timezone preferences in your user account.

Time Position Orientation Groundspeed Altitude Reporting Facility
EDT Latitude Longitude Course Direction KTS MPH feet Rate Location/Type
Tue 09:11:07 AM 42.3667 -70.9667 262° West 186 214 1,100  Level KA90
Tue 09:12:19 AM 42.3833 -70.8833 75° East 186 214 3,500 2,190 Climbing KA90
Tue 09:13:00 AM 42.3555 -70.7278 172° South  Level FlightAware Approximate
Tue 09:13:13 AM 42.3908 -70.8125 82° East 268 308 5,700  Level Boston Center
Tue 09:14:00 AM 42.2663 -70.7673 228° Southwest  Level FlightAware Approximate
Tue 09:14:13 AM 42.3417 -70.7239 127° Southeast 308 354 8,900  Level Boston Center
Tue 09:15:00 AM 42.2046 -70.8837 240° Southwest  Level FlightAware Approximate
Tue 09:15:13 AM 42.2689 -70.7400 189° South 323 372 11,900  Level Boston Center
Tue 09:16:00 AM 42.1781 -71.0193 262° West  Level FlightAware Approximate
Tue 09:16:13 AM 42.2267 -70.8419 241° Southwest 282 325 13,700  Level Boston Center
Tue 09:17:13 AM 42.2094 -70.9658 259° West 294 338 16,400 2,500 Climbing Boston Center
Tue 09:18:13 AM 42.1903 -71.0978 259° West 321 369 18,700 2,300 Climbing Boston Center
Tue 09:19:13 AM 42.1708 -71.2300 259° West 349 402 21,000 2,200 Climbing Boston Center
Tue 09:20:13 AM 42.1494 -71.3703 258° West 368 423 23,100 2,000 Climbing Boston Center
Tue 09:21:13 AM 42.1297 -71.5078 259° West 381 438 25,000 1,850 Climbing Boston Center
Tue 09:22:13 AM 42.1039 -71.6483 256° West 387 445 26,800 1,650 Climbing Boston Center
Tue 09:23:13 AM 42.0547 -71.7831 244° Southwest 399 459 28,300 1,450 Climbing Boston Center
Tue 09:24:13 AM 41.9969 -71.9178 240° Southwest 411 473 29,700 1,545 Climbing Boston Center
Tue 09:25:25 AM 41.9289 -72.0772 240° Southwest 416 479 31,700 1,045 Climbing Boston Center
Tue 09:26:25 AM 41.8728 -72.2086 240° Southwest 416 479 32,000 150 Climbing Boston Center
Tue 09:27:25 AM 41.8169 -72.3453 241° Southwest 416 479 32,000  Level Boston Center
Tue 09:28:25 AM 41.7711 -72.4539 241° Southwest 421 484 32,000  Level Boston Center
Tue 09:29:25 AM 41.7000 -72.6181 240° Southwest 421 484 32,000  Level Boston Center
Tue 09:30:25 AM 41.6414 -72.7511 240° Southwest 421 484 32,000  Level Boston Center
Tue 09:31:25 AM 41.5847 -72.8897 241° Southwest 426 490 32,000  Level Boston Center
Tue 09:32:25 AM 41.5297 -73.0197 241° Southwest 426 490 32,000  Level Boston Center
Tue 09:33:25 AM 41.4708 -73.1494 239° Southwest 420 483 32,000  Level Boston Center
Tue 09:35:31 AM 41.3525 -73.4244 240° Southwest 429 494 32,000  Level New York Center
Tue 09:36:31 AM 41.2933 -73.5575 239° Southwest 429 494 32,000  Level New York Center
Tue 09:37:29 AM 41.2300 -73.6733 234° Southwest 429 494 32,000  Level New York Center
Tue 09:38:31 AM 41.1561 -73.7969 232° Southwest 435 501 32,000  Level New York Center
Tue 09:39:29 AM 41.0822 -73.9203 232° Southwest 435 501 32,000  Level New York Center
Tue 09:40:29 AM 41.0100 -74.0461 233° Southwest 435 501 32,000 -200 Level New York Center
Tue 09:41:29 AM 40.9358 -74.1661 231° Southwest 430 495 31,600 -1,041 Descending New York Center
Tue 09:42:30 AM 40.8594 -74.2831 229° Southwest 430 495 29,900 -1,770 Descending New York Center
Tue 09:43:31 AM 40.7869 -74.4081 233° Southwest 430 495 28,000 -958 Descending New York Center
Tue 09:44:29 AM 40.7122 -74.5300 231° Southwest 430 495 28,000  Level New York Center
Tue 09:45:29 AM 40.6394 -74.6492 231° Southwest 430 495 28,000  Level New York Center
Tue 09:46:30 AM 40.5600 -74.7894 233° Southwest 435 501 28,000  Level New York Center
Tue 09:47:30 AM 40.5153 -74.9314 248° West 425 489 28,000  Level New York Center
Tue 09:48:31 AM 40.4728 -75.0708 248° West 420 483 28,000 -605 Level New York Center
Tue 09:49:29 AM 40.4300 -75.2153 249° West 420 483 26,800 -1,664 Descending New York Center
Tue 09:50:30 AM 40.3731 -75.3422 240° Southwest 425 489 24,700 -2,066 Descending New York Center
Tue 09:51:31 AM 40.2978 -75.4544 229° Southwest 413 475 22,600 -2,118 Descending New York Center
Tue 09:52:29 AM 40.2206 -75.5633 227° Southwest 413 475 20,500 -2,136 Descending New York Center
Tue 09:53:29 AM 40.1122 -75.6103 198° South 399 459 18,400 -1,785 Descending New York Center
Tue 09:54:30 AM 40.0317 -75.6914 218° Southwest 385 443 16,900 -1,835 Descending New York Center
Tue 09:55:30 AM 39.9653 -75.7869 228° Southwest 365 420 14,700 -1,983 Descending New York Center
Tue 09:56:31 AM 39.9075 -75.8667 227° Southwest 355 409 12,900 -931 Descending New York Center
Tue 09:58:24 AM 39.7833 -76.0333 226° Southwest 301 346 12,000 -310 Descending Potomac TRACON
Tue 09:59:25 AM 39.7333 -76.1167 232° Southwest 295 339 12,000 -446 Level Potomac TRACON
Tue 10:00:25 AM 39.6667 -76.1833 218° Southwest 293 337 11,100 -1,524 Descending Potomac TRACON
Tue 10:01:31 AM 39.6000 -76.2500 218° Southwest 292 336 8,800 -1,950 Descending Potomac TRACON
Tue 10:02:25 AM 39.5333 -76.3000 210° Southwest 289 333 7,200 -1,526 Descending Potomac TRACON
Tue 10:03:25 AM 39.4833 -76.3667 226° Southwest 261 300 5,900 -1,158 Descending Potomac TRACON
Tue 10:04:19 AM 39.4333 -76.4167 218° Southwest 258 297 5,000 -684 Descending Potomac TRACON
Tue 10:05:19 AM 39.3667 -76.4500 201° Southwest 263 303 4,600 -900 Descending Potomac TRACON
Tue 10:06:19 AM 39.2833 -76.4500 180° South 256 295 3,200 -1,368 Descending Potomac TRACON
Tue 10:07:13 AM 39.2333 -76.4667 194° South 252 290 2,000 -737 Descending Potomac TRACON
Tue 10:08:13 AM 39.1833 -76.5000 207° Southwest 208 239 1,800 -200 Descending Potomac TRACON

Login

Don't have an account? Register now (free) for customized features, flight alerts, and more!